createdAt,value
2022-12-04T00:01:43.443Z,24.30
2022-12-04T00:04:11.193Z,24.07
2022-12-04T00:06:38.346Z,24.63
2022-12-04T00:09:09.766Z,26.00
2022-12-04T00:12:24.935Z,24.80
2022-12-04T00:15:28.646Z,24.43
2022-12-04T00:19:13.514Z,25.30
2022-12-04T00:21:55.574Z,25.70
2022-12-04T00:24:22.974Z,26.57
2022-12-04T00:26:57.271Z,26.13
2022-12-04T00:29:30.545Z,24.50
2022-12-04T00:32:15.207Z,24.50
2022-12-04T00:34:57.822Z,23.37
2022-12-04T00:37:31.421Z,24.40
2022-12-04T00:39:58.461Z,24.90
2022-12-04T00:42:45.275Z,22.03
2022-12-04T00:45:15.291Z,23.50
2022-12-04T00:47:54.457Z,24.23
2022-12-04T00:50:22.231Z,23.83
2022-12-04T00:53:17.097Z,23.13
2022-12-04T00:59:18.507Z,23.67
2022-12-04T01:02:29.628Z,23.83
2022-12-04T01:04:56.800Z,22.30
2022-12-04T01:07:50.725Z,24.33
2022-12-04T01:13:51.902Z,23.37
2022-12-04T01:16:34.756Z,23.17
2022-12-04T01:19:25.238Z,22.03
2022-12-04T01:22:05.410Z,23.07
2022-12-04T01:24:32.566Z,20.77
2022-12-04T01:27:00.220Z,22.83
2022-12-04T01:29:27.850Z,22.10
2022-12-04T01:32:03.727Z,22.63
2022-12-04T01:34:31.416Z,21.77
2022-12-04T01:36:58.976Z,21.70
2022-12-04T01:39:26.227Z,21.53
2022-12-04T01:41:53.221Z,21.60
2022-12-04T01:45:03.377Z,21.83
2022-12-04T01:47:30.309Z,20.83
2022-12-04T01:50:13.507Z,23.17
2022-12-04T01:52:46.231Z,22.27
2022-12-04T01:55:16.599Z,21.27
2022-12-04T01:57:49.432Z,22.93
2022-12-04T02:00:17.612Z,23.23
2022-12-04T02:02:49.065Z,23.10
2022-12-04T02:05:28.778Z,24.03
2022-12-04T02:08:04.902Z,22.43
2022-12-04T02:10:46.311Z,21.23
2022-12-04T02:13:51.759Z,22.47
2022-12-04T02:16:47.118Z,22.40
2022-12-04T02:19:50.703Z,21.47
2022-12-04T02:22:57.488Z,21.33
2022-12-04T02:26:08.879Z,22.43
2022-12-04T02:29:04.749Z,20.43
2022-12-04T02:31:43.537Z,21.17
2022-12-04T02:34:51.195Z,22.67
2022-12-04T02:37:40.901Z,22.00
2022-12-04T02:40:49.394Z,22.43
2022-12-04T02:44:03.357Z,22.77
2022-12-04T02:47:00.872Z,22.63
2022-12-04T02:50:07.106Z,21.37
2022-12-04T02:53:01.164Z,22.63
2022-12-04T02:55:57.180Z,21.67
2022-12-04T02:59:24.376Z,23.00
2022-12-04T03:03:04.064Z,22.10
2022-12-04T03:05:44.045Z,22.53
2022-12-04T03:08:44.171Z,23.63
2022-12-04T03:11:47.480Z,23.10
2022-12-04T03:14:48.505Z,21.53
2022-12-04T03:17:42.146Z,21.20
2022-12-04T03:20:28.770Z,20.20
2022-12-04T03:23:12.972Z,21.30
2022-12-04T03:26:36.751Z,20.83
2022-12-04T03:31:16.764Z,19.93
2022-12-04T03:34:44.798Z,19.90
2022-12-04T03:38:12.637Z,19.33
2022-12-04T03:41:16.861Z,21.27
2022-12-04T03:44:20.807Z,22.23
2022-12-04T03:47:20.527Z,21.27
2022-12-04T03:50:33.261Z,21.13
2022-12-04T03:53:22.716Z,20.90
2022-12-04T03:56:17.587Z,21.43
2022-12-04T03:58:57.333Z,19.30
2022-12-04T04:01:37.879Z,20.87
2022-12-04T04:04:24.332Z,19.00
2022-12-04T04:07:44.520Z,20.43
2022-12-04T04:10:55.209Z,19.73
2022-12-04T04:14:22.425Z,20.30
2022-12-04T04:21:30.253Z,20.27
2022-12-04T04:24:32.525Z,19.80
2022-12-04T04:28:06.198Z,19.13
2022-12-04T04:35:04.609Z,17.53
2022-12-04T04:38:08.304Z,16.93
2022-12-04T04:54:38.482Z,17.80
2022-12-04T04:57:45.143Z,18.33
2022-12-04T05:01:03.028Z,18.73
2022-12-04T05:04:07.591Z,18.20
2022-12-04T05:10:19.849Z,17.70
2022-12-04T05:13:30.367Z,18.27
2022-12-04T05:20:06.841Z,18.07
2022-12-04T05:23:24.577Z,18.10
2022-12-04T05:26:18.563Z,18.23
2022-12-04T05:28:51.881Z,16.83
2022-12-04T05:31:21.932Z,18.30
2022-12-04T05:34:31.631Z,18.07
2022-12-04T05:37:20.288Z,18.90
2022-12-04T05:39:59.075Z,17.93
2022-12-04T05:42:26.490Z,20.00
2022-12-04T05:45:04.707Z,17.87
2022-12-04T05:51:14.338Z,20.03
2022-12-04T05:53:44.872Z,19.60
2022-12-04T05:56:47.340Z,20.10
2022-12-04T05:59:14.639Z,20.07
2022-12-04T06:02:08.531Z,19.50
2022-12-04T06:04:37.568Z,18.87
2022-12-04T06:07:49.301Z,18.40
2022-12-04T06:10:42.655Z,19.27
2022-12-04T06:13:23.449Z,19.03
2022-12-04T06:15:52.032Z,18.23
2022-12-04T06:18:21.829Z,18.67
2022-12-04T06:21:18.909Z,18.17
2022-12-04T06:23:56.426Z,18.50
2022-12-04T06:26:32.528Z,17.93
2022-12-04T06:29:03.107Z,17.70
2022-12-04T06:31:39.255Z,18.20
2022-12-04T06:34:16.282Z,18.23
2022-12-04T06:37:38.644Z,18.97
2022-12-04T06:40:29.485Z,18.37
2022-12-04T06:43:06.493Z,18.27
2022-12-04T06:45:36.569Z,18.83
2022-12-04T06:48:13.129Z,17.63
2022-12-04T06:51:12.239Z,17.97
2022-12-04T06:54:14.991Z,17.47
2022-12-04T06:56:48.949Z,17.83
2022-12-04T07:00:19.513Z,18.93
2022-12-04T07:03:12.718Z,18.33
2022-12-04T07:05:48.705Z,17.97
2022-12-04T07:08:24.321Z,18.13
2022-12-04T07:11:30.938Z,17.33
2022-12-04T07:18:50.750Z,16.80
2022-12-04T07:22:16.514Z,17.27
2022-12-04T07:25:09.658Z,17.70
2022-12-04T07:28:32.080Z,17.30
2022-12-04T07:54:14.603Z,16.73
2022-12-04T07:56:53.359Z,17.30
2022-12-04T07:59:45.407Z,16.87
2022-12-04T08:02:27.326Z,15.87
2022-12-04T08:05:21.884Z,18.40
2022-12-04T08:08:48.165Z,17.10
2022-12-04T08:11:22.666Z,16.83
2022-12-04T08:14:32.122Z,17.43
2022-12-04T08:17:05.802Z,18.17
2022-12-04T08:20:47.674Z,17.77
2022-12-04T08:26:35.287Z,16.63
2022-12-04T08:29:23.631Z,17.17
2022-12-04T08:32:04.698Z,18.63
2022-12-04T08:34:40.852Z,18.57
2022-12-04T08:37:08.142Z,18.17
2022-12-04T08:39:34.995Z,18.57
2022-12-04T08:42:42.756Z,18.27
2022-12-04T08:45:19.435Z,17.13
2022-12-04T08:47:52.063Z,17.00
2022-12-04T08:54:51.045Z,17.77
2022-12-04T08:57:32.944Z,16.83
2022-12-04T09:00:13.429Z,17.20
2022-12-04T09:02:59.934Z,17.23
2022-12-04T09:05:47.027Z,17.00
2022-12-04T09:08:39.011Z,16.70
2022-12-04T09:14:48.371Z,17.70
2022-12-04T09:17:53.000Z,16.93
2022-12-04T09:20:49.490Z,16.73
2022-12-04T09:23:49.373Z,15.47
2022-12-04T09:26:34.586Z,16.63
2022-12-04T09:29:41.063Z,16.13
2022-12-04T09:32:21.059Z,15.93
2022-12-04T09:34:54.345Z,16.00
2022-12-04T09:37:34.866Z,16.33
2022-12-04T09:40:19.020Z,16.80
2022-12-04T09:43:28.313Z,16.63
2022-12-04T09:46:10.572Z,16.87
2022-12-04T09:48:41.651Z,17.77
2022-12-04T09:51:28.073Z,18.37
2022-12-04T09:57:48.726Z,17.90
2022-12-04T10:00:26.665Z,18.00
2022-12-04T10:03:04.464Z,17.77
2022-12-04T10:06:19.796Z,18.10
2022-12-04T10:09:13.376Z,18.17
2022-12-04T10:12:35.114Z,17.90
2022-12-04T10:15:28.899Z,17.90
2022-12-04T10:18:17.835Z,18.63
2022-12-04T10:21:03.129Z,18.23
2022-12-04T10:24:21.076Z,18.27
2022-12-04T10:27:02.563Z,17.90
2022-12-04T10:29:55.221Z,17.87
2022-12-04T10:33:25.120Z,18.97
2022-12-04T10:36:18.429Z,18.00
2022-12-04T10:39:35.832Z,18.50
2022-12-04T10:43:08.703Z,19.90
2022-12-04T10:46:21.953Z,17.90
2022-12-04T10:52:48.606Z,17.57
2022-12-04T10:55:44.570Z,17.40
2022-12-04T11:10:22.742Z,16.23
2022-12-04T11:13:55.888Z,16.47
2022-12-04T11:21:44.540Z,15.83
2022-12-04T11:25:00.819Z,16.20
2022-12-04T11:27:41.227Z,14.80
2022-12-04T11:30:18.972Z,15.40
2022-12-04T11:33:02.829Z,15.30
2022-12-04T11:36:41.301Z,16.00
2022-12-04T11:40:16.405Z,16.67
2022-12-04T12:15:22.471Z,16.77
2022-12-04T12:18:34.324Z,16.73
2022-12-04T12:21:20.729Z,18.07
2022-12-04T12:24:23.629Z,17.23
2022-12-04T12:27:09.819Z,17.40
2022-12-04T12:29:55.254Z,15.93
2022-12-04T12:33:14.729Z,17.07
2022-12-04T12:36:08.648Z,16.97
2022-12-04T12:38:47.326Z,15.67
2022-12-04T12:42:15.567Z,16.20
2022-12-04T12:44:58.850Z,16.30
2022-12-04T12:51:49.597Z,16.50
2022-12-04T12:58:46.547Z,16.10
2022-12-04T13:04:55.343Z,17.07
2022-12-04T13:08:23.489Z,16.93
2022-12-04T13:11:31.322Z,16.77
2022-12-04T13:14:00.955Z,17.13
2022-12-04T13:17:47.175Z,17.00
2022-12-04T13:20:24.189Z,16.93
2022-12-04T13:53:06.086Z,17.00
2022-12-04T13:55:45.912Z,17.00
2022-12-04T13:58:54.053Z,18.27
2022-12-04T14:01:28.966Z,18.10
2022-12-04T14:03:57.944Z,18.07
2022-12-04T14:06:44.215Z,17.73
2022-12-04T14:10:12.682Z,18.80
2022-12-04T14:13:05.519Z,17.67
2022-12-04T14:15:37.268Z,17.97
2022-12-04T14:18:19.611Z,16.70
2022-12-04T14:21:02.190Z,16.73
2022-12-04T14:23:39.618Z,16.30
2022-12-04T14:26:33.111Z,16.53
2022-12-04T14:30:01.272Z,17.87
2022-12-04T14:33:18.153Z,16.20
2022-12-04T14:36:10.453Z,16.17
2022-12-04T14:38:53.113Z,17.43
2022-12-04T14:41:27.027Z,17.00
2022-12-04T14:45:02.643Z,16.77
2022-12-04T14:48:11.369Z,16.30
2022-12-04T14:50:56.966Z,16.83
2022-12-04T14:54:04.711Z,16.07
2022-12-04T15:00:28.030Z,17.07
2022-12-04T15:04:13.585Z,17.87
2022-12-04T15:07:28.669Z,17.07
2022-12-04T15:10:58.856Z,17.20
2022-12-04T15:13:45.302Z,17.00
2022-12-04T15:16:30.397Z,18.27
2022-12-04T16:02:55.668Z,16.80
2022-12-04T16:21:04.337Z,16.07
2022-12-04T16:23:52.839Z,16.13
2022-12-04T16:26:44.907Z,15.53
2022-12-04T16:29:15.337Z,15.37
2022-12-04T16:31:50.171Z,16.53
2022-12-04T16:34:24.493Z,16.37
2022-12-04T16:37:17.146Z,16.67
2022-12-04T16:40:09.321Z,16.53
2022-12-04T16:42:40.271Z,16.70
2022-12-04T16:45:37.925Z,16.80
2022-12-04T16:48:40.086Z,16.53
2022-12-04T16:51:15.991Z,17.23
2022-12-04T16:53:54.349Z,18.07
2022-12-04T16:56:25.189Z,17.37
2022-12-04T16:59:30.357Z,17.13
2022-12-04T17:02:41.197Z,15.90
2022-12-04T17:05:25.107Z,15.70
2022-12-04T17:07:56.136Z,15.87
2022-12-04T17:10:26.355Z,16.10
2022-12-04T17:13:12.383Z,16.97
2022-12-04T17:19:27.994Z,16.10
2022-12-04T17:22:55.270Z,16.87
2022-12-04T17:26:04.301Z,16.10
2022-12-04T17:28:36.669Z,15.13
2022-12-04T17:31:17.866Z,15.37
2022-12-04T17:33:54.784Z,14.20
2022-12-04T17:36:38.692Z,15.20
2022-12-04T17:39:16.470Z,15.03
2022-12-04T17:41:46.665Z,15.77
2022-12-04T17:44:38.705Z,15.23
2022-12-04T17:47:09.369Z,16.07
2022-12-04T17:49:39.854Z,15.80
2022-12-04T17:52:07.451Z,14.90
2022-12-04T17:54:35.481Z,15.80
2022-12-04T17:57:02.983Z,15.33
2022-12-04T17:59:33.254Z,14.50
2022-12-04T18:02:03.326Z,15.20
2022-12-04T18:04:36.785Z,14.00
2022-12-04T18:07:12.138Z,13.50
2022-12-04T18:09:49.501Z,13.30
2022-12-04T18:16:22.899Z,13.67
2022-12-04T18:18:55.473Z,13.03
2022-12-04T18:21:23.032Z,13.30
2022-12-04T18:23:50.959Z,14.23
2022-12-04T18:26:24.360Z,13.03
2022-12-04T18:28:53.282Z,13.50
2022-12-04T18:31:22.912Z,14.00
2022-12-04T18:33:50.419Z,13.77
2022-12-04T18:36:22.782Z,12.93
2022-12-04T18:38:58.438Z,13.53
2022-12-04T18:41:29.381Z,14.03
2022-12-04T18:44:06.500Z,13.43
2022-12-04T18:46:35.769Z,13.40
2022-12-04T18:52:42.725Z,14.13
2022-12-04T18:55:12.891Z,14.17
2022-12-04T18:57:45.813Z,14.23
2022-12-04T19:00:13.476Z,15.03
2022-12-04T19:02:41.212Z,13.63
2022-12-04T19:05:08.506Z,14.33
2022-12-04T19:07:35.759Z,13.73
2022-12-04T19:10:21.296Z,14.80
2022-12-04T19:12:48.626Z,13.27
2022-12-04T19:15:18.705Z,14.60
2022-12-04T19:17:50.668Z,14.47
2022-12-04T19:20:21.454Z,14.50
2022-12-04T19:22:51.355Z,13.90
2022-12-04T19:25:18.330Z,14.83
2022-12-04T19:27:45.372Z,15.10
2022-12-04T19:30:13.214Z,14.73
2022-12-04T19:32:40.437Z,14.30
2022-12-04T19:35:13.177Z,15.33
2022-12-04T19:37:42.211Z,14.70
2022-12-04T19:40:10.554Z,15.73
2022-12-04T19:43:09.794Z,14.67
2022-12-04T19:45:39.887Z,14.33
2022-12-04T19:49:21.100Z,15.30
2022-12-04T19:51:49.456Z,13.90
2022-12-04T19:54:18.482Z,14.30
2022-12-04T19:56:51.111Z,14.93
2022-12-04T19:59:24.303Z,15.00
2022-12-04T20:01:51.890Z,14.97
2022-12-04T20:04:19.502Z,14.93
2022-12-04T20:06:49.385Z,14.23
2022-12-04T20:09:20.767Z,15.40
2022-12-04T20:12:01.508Z,14.67
2022-12-04T20:14:31.614Z,15.10
2022-12-04T20:17:11.961Z,15.37
2022-12-04T20:19:39.655Z,15.23
2022-12-04T20:22:09.263Z,15.67
2022-12-04T20:24:43.155Z,15.10
2022-12-04T20:28:02.074Z,15.03
2022-12-04T20:30:34.789Z,15.10
2022-12-04T20:33:01.920Z,16.00
2022-12-04T20:35:29.138Z,15.10
2022-12-04T20:37:56.560Z,15.03
2022-12-04T20:40:25.006Z,15.63
2022-12-04T20:43:04.443Z,15.70
2022-12-04T20:45:36.772Z,16.10
2022-12-04T20:48:07.179Z,15.87
2022-12-04T20:50:34.988Z,15.67
2022-12-04T20:53:15.245Z,16.33
2022-12-04T20:55:57.243Z,16.23
2022-12-04T20:58:24.836Z,15.67
2022-12-04T21:00:55.391Z,14.73
2022-12-04T21:03:22.403Z,15.17
2022-12-04T21:05:53.201Z,15.43
2022-12-04T21:08:43.127Z,15.33
2022-12-04T21:11:18.211Z,14.43
2022-12-04T21:14:21.928Z,14.50
2022-12-04T21:16:52.865Z,14.43
2022-12-04T21:19:21.961Z,14.50
2022-12-04T21:21:49.978Z,15.20
2022-12-04T21:24:26.821Z,15.93
2022-12-04T21:27:07.022Z,15.20
2022-12-04T21:29:43.353Z,14.23
2022-12-04T21:32:11.271Z,14.97
2022-12-04T21:34:57.297Z,14.50
2022-12-04T21:37:43.341Z,15.17
2022-12-04T21:40:25.856Z,14.77
2022-12-04T21:43:13.579Z,15.40
2022-12-04T21:46:13.543Z,14.83
2022-12-04T21:49:08.649Z,15.40
2022-12-04T21:51:58.413Z,15.80
2022-12-04T21:54:37.991Z,15.27
2022-12-04T21:57:11.801Z,14.50
2022-12-04T21:59:54.187Z,15.47
2022-12-04T22:02:44.554Z,15.30
2022-12-04T22:06:13.581Z,14.77
2022-12-04T22:09:33.083Z,13.50
2022-12-04T22:12:41.158Z,13.13
2022-12-04T22:18:46.549Z,13.00
2022-12-04T22:21:27.898Z,13.20
2022-12-04T22:24:04.755Z,13.27
2022-12-04T22:26:50.011Z,12.57
2022-12-04T22:29:59.235Z,13.60
2022-12-04T22:32:32.418Z,13.00
2022-12-04T22:35:08.935Z,12.80
2022-12-04T22:37:41.104Z,12.43
2022-12-04T22:40:24.738Z,12.63
2022-12-04T22:44:13.962Z,13.07
2022-12-04T22:46:48.862Z,12.73
2022-12-04T22:49:16.358Z,13.73
2022-12-04T22:51:43.718Z,13.90
2022-12-04T22:54:18.753Z,13.73
2022-12-04T22:56:48.813Z,13.20
2022-12-04T22:59:22.703Z,13.20
2022-12-04T23:01:52.553Z,13.23
2022-12-04T23:04:22.337Z,12.70
2022-12-04T23:06:55.651Z,13.60
2022-12-04T23:09:27.964Z,13.70
2022-12-04T23:12:06.792Z,13.27
2022-12-04T23:17:18.338Z,13.37
2022-12-04T23:20:39.033Z,14.70
2022-12-04T23:23:31.243Z,13.43
2022-12-04T23:26:10.670Z,13.90
2022-12-04T23:28:38.962Z,14.07
2022-12-04T23:32:20.135Z,14.40
2022-12-04T23:34:53.252Z,13.87
2022-12-04T23:37:37.467Z,14.47
2022-12-04T23:40:23.370Z,14.57
2022-12-04T23:43:17.422Z,14.50
2022-12-04T23:45:45.096Z,14.20
2022-12-04T23:48:12.881Z,15.53
2022-12-04T23:50:45.363Z,13.80
2022-12-04T23:53:24.974Z,13.87
2022-12-04T23:56:26.921Z,14.30
2022-12-04T23:59:03.824Z,13.90
